createdAt,value
2019-01-14T00:02:18.911Z,96172.12
2019-01-14T00:04:47.658Z,96174.63
2019-01-14T00:07:16.329Z,96179.63
2019-01-14T00:09:44.967Z,96183.16
2019-01-14T00:12:13.623Z,96189.47
2019-01-14T00:14:42.286Z,96221.91
2019-01-14T00:17:11.611Z,96199.08
2019-01-14T00:19:40.398Z,96215.39
2019-01-14T00:22:09.203Z,96216.09
2019-01-14T00:24:37.868Z,96224.12
2019-01-14T00:27:06.478Z,96232.70
2019-01-14T00:29:35.210Z,96236.00
2019-01-14T00:32:03.924Z,96252.23
2019-01-14T00:34:32.849Z,96247.22
2019-01-14T00:37:01.588Z,96261.81
2019-01-14T00:39:30.598Z,96273.75
2019-01-14T00:41:59.498Z,96269.62
2019-01-14T00:44:28.801Z,96273.34
2019-01-14T00:46:57.782Z,96275.60
2019-01-14T00:49:26.519Z,96277.39
2019-01-14T00:51:55.575Z,96277.15
2019-01-14T00:54:24.563Z,96279.50
2019-01-14T00:56:53.687Z,96286.90
2019-01-14T00:59:22.331Z,96290.03
2019-01-14T01:01:51.023Z,96299.78
2019-01-14T01:04:19.731Z,96294.05
2019-01-14T01:06:48.669Z,96294.47
2019-01-14T01:09:17.450Z,96299.88
2019-01-14T01:11:46.083Z,96297.28
2019-01-14T01:14:14.730Z,96297.51
2019-01-14T01:16:43.469Z,96306.38
2019-01-14T01:19:12.190Z,96298.52
2019-01-14T01:21:41.019Z,96298.73
2019-01-14T01:24:09.622Z,96303.56
2019-01-14T01:26:38.278Z,96297.41
2019-01-14T01:29:06.964Z,96303.04
2019-01-14T01:31:35.592Z,96311.83
2019-01-14T01:34:06.076Z,96315.75
2019-01-14T01:36:35.286Z,96313.03
2019-01-14T01:39:06.993Z,96316.41
2019-01-14T01:41:35.696Z,96311.91
2019-01-14T01:44:04.493Z,96300.33
2019-01-14T01:46:33.291Z,96305.61
2019-01-14T01:49:01.927Z,96312.83
2019-01-14T01:51:30.608Z,96314.41
2019-01-14T01:53:59.626Z,96307.55
2019-01-14T01:56:28.351Z,96317.42
2019-01-14T01:58:57.088Z,96306.88
2019-01-14T02:01:25.732Z,96312.73
2019-01-14T02:03:54.389Z,96314.08
2019-01-14T02:06:23.051Z,96314.50
2019-01-14T02:08:51.688Z,96314.83
2019-01-14T02:11:20.397Z,96313.14
2019-01-14T02:13:49.631Z,96308.11
2019-01-14T02:16:18.331Z,96314.60
2019-01-14T02:18:46.954Z,96327.05
2019-01-14T02:21:15.903Z,96326.47
2019-01-14T02:23:44.539Z,96332.65
2019-01-14T02:26:13.172Z,96338.36
2019-01-14T02:28:41.822Z,96331.50
2019-01-14T02:31:10.720Z,96331.94
2019-01-14T02:33:39.359Z,96337.45
2019-01-14T02:36:08.076Z,96336.55
2019-01-14T02:38:36.726Z,96340.94
2019-01-14T02:41:05.350Z,96340.15
2019-01-14T02:43:34.008Z,96337.99
2019-01-14T02:46:02.632Z,96324.83
2019-01-14T02:48:31.258Z,96332.23
2019-01-14T02:51:00.216Z,96326.84
2019-01-14T02:53:28.916Z,96344.80
2019-01-14T02:55:57.632Z,96343.14
2019-01-14T02:58:26.267Z,96351.34
2019-01-14T03:00:54.903Z,96349.00
2019-01-14T03:03:23.543Z,96355.95
2019-01-14T03:05:52.363Z,96366.62
2019-01-14T03:08:21.017Z,96349.98
2019-01-14T03:10:49.655Z,96344.36
2019-01-14T03:13:18.300Z,96353.58
2019-01-14T03:15:46.923Z,96348.66
2019-01-14T03:18:15.556Z,96355.30
2019-01-14T03:20:44.198Z,96367.77
2019-01-14T03:23:12.838Z,96369.13
2019-01-14T03:25:41.470Z,96372.61
2019-01-14T03:28:10.124Z,96365.19
2019-01-14T03:30:38.754Z,96372.47
2019-01-14T03:33:07.393Z,96373.37
2019-01-14T03:35:36.022Z,96389.31
2019-01-14T03:38:04.654Z,96391.91
2019-01-14T03:40:33.292Z,96398.41
2019-01-14T03:43:02.309Z,96397.28
2019-01-14T03:45:30.943Z,96403.22
2019-01-14T03:47:59.635Z,96407.48
2019-01-14T03:50:28.312Z,96412.43
2019-01-14T03:52:57.080Z,96426.35
2019-01-14T03:55:26.127Z,96439.41
2019-01-14T03:57:54.841Z,96427.61
2019-01-14T04:00:23.568Z,96434.23
2019-01-14T04:02:52.280Z,96430.62
2019-01-14T04:05:21.103Z,96433.53
2019-01-14T04:07:49.819Z,96442.98
2019-01-14T04:10:18.570Z,96444.44
2019-01-14T04:12:47.305Z,96442.19
2019-01-14T04:15:16.995Z,96444.09
2019-01-14T04:17:45.709Z,96454.22
2019-01-14T04:20:14.987Z,96459.39
2019-01-14T04:22:44.775Z,96465.11
2019-01-14T04:25:13.487Z,96460.73
2019-01-14T04:27:42.150Z,96463.54
2019-01-14T04:30:12.364Z,96467.58
2019-01-14T04:32:41.000Z,96486.58
2019-01-14T04:35:10.078Z,96487.25
2019-01-14T04:37:39.010Z,96493.33
2019-01-14T04:40:08.644Z,96503.66
2019-01-14T04:42:37.451Z,96498.14
2019-01-14T04:45:06.603Z,96504.09
2019-01-14T04:47:35.314Z,96518.82
2019-01-14T04:50:05.254Z,96525.67
2019-01-14T04:52:34.348Z,96529.16
2019-01-14T04:55:02.999Z,96530.39
2019-01-14T04:57:31.657Z,96535.56
2019-01-14T05:00:00.301Z,96529.94
2019-01-14T05:02:28.981Z,96534.78
2019-01-14T05:04:57.619Z,96528.95
2019-01-14T05:07:29.767Z,96526.48
2019-01-14T05:09:56.583Z,96539.28
2019-01-14T05:12:25.244Z,96540.37
2019-01-14T05:14:54.225Z,96546.21
2019-01-14T05:17:23.255Z,96543.41
2019-01-14T05:19:51.895Z,96547.25
2019-01-14T05:22:20.523Z,96560.73
2019-01-14T05:24:49.159Z,96571.73
2019-01-14T05:27:17.831Z,96577.31
2019-01-14T05:29:46.461Z,96573.72
2019-01-14T05:32:15.178Z,96577.77
2019-01-14T05:34:43.838Z,96571.25
2019-01-14T05:37:12.470Z,96574.95
2019-01-14T05:39:41.106Z,96585.95
2019-01-14T05:42:10.078Z,96593.25
2019-01-14T05:44:38.716Z,96593.37
2019-01-14T05:47:07.347Z,96596.52
2019-01-14T05:49:35.996Z,96606.95
2019-01-14T05:52:04.706Z,96612.34
2019-01-14T05:54:33.334Z,96606.95
2019-01-14T05:57:03.152Z,96618.27
2019-01-14T05:59:31.778Z,96613.34
2019-01-14T06:02:00.421Z,96627.70
2019-01-14T06:04:29.080Z,96624.67
2019-01-14T06:06:57.716Z,96611.66
2019-01-14T06:09:26.360Z,96611.22
2019-01-14T06:11:55.012Z,96634.68
2019-01-14T06:14:23.641Z,96631.19
2019-01-14T06:16:52.276Z,96650.09
2019-01-14T06:19:21.283Z,96651.60
2019-01-14T06:21:49.919Z,96654.65
2019-01-14T06:24:18.563Z,96644.74
2019-01-14T06:26:47.234Z,96662.77
2019-01-14T06:29:15.859Z,96668.58
2019-01-14T06:31:44.491Z,96666.73
2019-01-14T06:34:13.219Z,96673.01
2019-01-14T06:36:41.863Z,96686.63
2019-01-14T06:39:10.515Z,96699.71
2019-01-14T06:41:39.490Z,96701.52
2019-01-14T06:44:08.122Z,96711.40
2019-01-14T06:46:36.757Z,96709.95
2019-01-14T06:49:05.398Z,96721.77
2019-01-14T06:51:34.026Z,96721.84
2019-01-14T06:54:02.730Z,96718.69
2019-01-14T06:56:31.451Z,96723.83
2019-01-14T06:59:00.098Z,96721.80
2019-01-14T07:01:28.730Z,96723.37
2019-01-14T07:03:57.370Z,96741.47
2019-01-14T07:06:26.002Z,96744.34
2019-01-14T07:08:55.024Z,96746.37
2019-01-14T07:11:23.931Z,96756.77
2019-01-14T07:13:52.592Z,96771.16
2019-01-14T07:16:21.303Z,96771.55
2019-01-14T07:18:49.948Z,96775.91
2019-01-14T07:21:18.576Z,96781.01
2019-01-14T07:23:47.275Z,96791.89
2019-01-14T07:26:15.923Z,96791.05
2019-01-14T07:28:44.559Z,96790.33
2019-01-14T07:31:13.188Z,96798.50
2019-01-14T07:33:41.854Z,96814.80
2019-01-14T07:36:10.839Z,96806.34
2019-01-14T07:38:39.458Z,96812.33
2019-01-14T07:41:08.187Z,96824.69
2019-01-14T07:43:36.818Z,96830.63
2019-01-14T07:46:05.459Z,96834.70
2019-01-14T07:48:35.082Z,96839.23
2019-01-14T07:51:03.799Z,96839.86
2019-01-14T07:53:32.438Z,96848.34
2019-01-14T07:56:01.109Z,96860.56
2019-01-14T07:58:30.116Z,96863.49
2019-01-14T08:00:58.746Z,96868.95
2019-01-14T08:03:27.388Z,96878.31
2019-01-14T08:05:56.052Z,96885.39
2019-01-14T08:08:25.670Z,96887.09
2019-01-14T08:10:54.320Z,96900.47
2019-01-14T08:13:22.950Z,96900.90
2019-01-14T08:15:51.586Z,96894.52
2019-01-14T08:18:20.235Z,96906.55
2019-01-14T08:20:48.967Z,96908.69
2019-01-14T08:23:17.599Z,96918.59
2019-01-14T08:25:46.611Z,96918.39
2019-01-14T08:28:15.247Z,96918.06
2019-01-14T08:30:43.899Z,96925.72
2019-01-14T08:33:12.549Z,96924.70
2019-01-14T08:35:41.179Z,96931.58
2019-01-14T08:38:10.217Z,96922.50
2019-01-14T08:40:39.131Z,96922.89
2019-01-14T08:43:07.768Z,96933.45
2019-01-14T08:45:36.402Z,96931.31
2019-01-14T08:48:05.192Z,96938.84
2019-01-14T08:50:33.904Z,96943.25
2019-01-14T08:53:02.549Z,96943.05
2019-01-14T08:55:31.254Z,96958.54
2019-01-14T08:57:59.927Z,96947.72
2019-01-14T09:00:28.678Z,96956.04
2019-01-14T09:02:57.343Z,96957.72
2019-01-14T09:05:25.980Z,96970.25
2019-01-14T09:07:54.610Z,96966.13
2019-01-14T09:10:26.781Z,96974.58
2019-01-14T09:12:55.573Z,96971.55
2019-01-14T09:15:24.660Z,96972.70
2019-01-14T09:17:53.316Z,96983.42
2019-01-14T09:20:23.031Z,96995.58
2019-01-14T09:22:51.815Z,96998.03
2019-01-14T09:25:20.474Z,97008.17
2019-01-14T09:27:49.114Z,97001.19
2019-01-14T09:30:18.923Z,97001.78
2019-01-14T09:32:47.580Z,97005.50
2019-01-14T09:35:16.308Z,97005.91
2019-01-14T09:37:45.028Z,97012.83
2019-01-14T09:40:15.603Z,97013.83
2019-01-14T09:42:44.586Z,97014.69
2019-01-14T09:45:13.299Z,97006.48
2019-01-14T09:47:42.071Z,97011.48
2019-01-14T09:50:11.566Z,97016.06
2019-01-14T09:52:40.272Z,97030.28
2019-01-14T09:55:10.455Z,97027.98
2019-01-14T09:57:39.158Z,97027.25
2019-01-14T10:00:08.237Z,97023.20
2019-01-14T10:02:37.154Z,97019.71
2019-01-14T10:05:06.534Z,97015.47
2019-01-14T10:07:35.438Z,97014.16
2019-01-14T10:10:04.656Z,97014.45
2019-01-14T10:12:33.278Z,97013.97
2019-01-14T10:15:01.920Z,97009.88
2019-01-14T10:17:31.566Z,97006.39
2019-01-14T10:20:00.258Z,97013.44
2019-01-14T10:22:29.292Z,97009.22
2019-01-14T10:24:57.952Z,97011.05
2019-01-14T10:27:26.603Z,97005.80
2019-01-14T10:29:55.254Z,97005.69
2019-01-14T10:32:24.027Z,96996.80
2019-01-14T10:34:52.735Z,97006.77
2019-01-14T10:37:22.867Z,97006.59
2019-01-14T10:39:51.799Z,97007.33
2019-01-14T10:42:20.435Z,97009.88
2019-01-14T10:44:49.082Z,97004.42
2019-01-14T10:47:17.751Z,97004.00
2019-01-14T10:49:46.398Z,97010.19
2019-01-14T10:52:15.179Z,97004.05
2019-01-14T10:54:43.827Z,96995.31
2019-01-14T10:57:12.543Z,96999.62
2019-01-14T10:59:41.170Z,96991.50
2019-01-14T11:02:10.226Z,96992.19
2019-01-14T11:04:38.851Z,97000.28
2019-01-14T11:07:07.896Z,96991.71
2019-01-14T11:09:36.614Z,96998.03
2019-01-14T11:12:05.804Z,96988.82
2019-01-14T11:14:34.510Z,97003.83
2019-01-14T11:17:03.162Z,96986.16
2019-01-14T11:19:32.342Z,96984.63
2019-01-14T11:22:00.977Z,96986.49
2019-01-14T11:24:49.447Z,96986.56
2019-01-14T11:27:18.836Z,97001.40
2019-01-14T11:29:54.302Z,97003.14
2019-01-14T11:32:23.151Z,96998.07
2019-01-14T11:34:51.810Z,97007.69
2019-01-14T11:37:20.526Z,97013.13
2019-01-14T11:39:49.234Z,97002.39
2019-01-14T11:42:17.870Z,97010.22
2019-01-14T11:44:46.536Z,97018.17
2019-01-14T11:47:16.287Z,97019.73
2019-01-14T11:49:46.215Z,97010.39
2019-01-14T11:52:14.934Z,97008.41
2019-01-14T11:54:43.580Z,97008.69
2019-01-14T11:57:12.227Z,96998.61
2019-01-14T11:59:40.872Z,97007.90
2019-01-14T12:02:09.515Z,97002.14
2019-01-14T12:04:38.200Z,97012.63
2019-01-14T12:07:06.871Z,97009.13
2019-01-14T12:09:35.855Z,97016.77
2019-01-14T12:12:04.745Z,97021.89
2019-01-14T12:14:33.384Z,97020.93
2019-01-14T12:17:02.031Z,97022.84
2019-01-14T12:19:30.666Z,97025.45
2019-01-14T12:21:59.319Z,97015.70
2019-01-14T12:24:27.975Z,97009.95
2019-01-14T12:26:56.615Z,97010.25
2019-01-14T12:29:25.334Z,97006.46
2019-01-14T12:31:53.970Z,97003.22
2019-01-14T12:34:22.612Z,97001.96
2019-01-14T12:36:51.878Z,97014.61
2019-01-14T12:39:20.606Z,97002.58
2019-01-14T12:41:51.152Z,97001.56
2019-01-14T12:44:20.024Z,97002.98
2019-01-14T12:46:49.818Z,97001.95
2019-01-14T12:49:18.536Z,97001.56
2019-01-14T12:51:47.195Z,96996.64
2019-01-14T12:54:15.853Z,97008.05
2019-01-14T12:56:44.478Z,96999.56
2019-01-14T12:59:13.144Z,97005.89
2019-01-14T13:01:41.793Z,97003.84
2019-01-14T13:04:10.429Z,96996.86
2019-01-14T13:06:39.460Z,97004.95
2019-01-14T13:09:09.151Z,97001.39
2019-01-14T13:11:37.793Z,97011.66
2019-01-14T13:14:06.435Z,97016.00
2019-01-14T13:16:35.083Z,96999.36
2019-01-14T13:19:03.753Z,97006.17
2019-01-14T13:21:32.575Z,97005.06
2019-01-14T13:24:01.281Z,97006.41
2019-01-14T13:26:29.994Z,97003.42
2019-01-14T13:28:58.923Z,97009.37
2019-01-14T13:31:27.559Z,97009.66
2019-01-14T13:33:56.200Z,97013.37
2019-01-14T13:36:24.865Z,97001.68
2019-01-14T13:38:53.572Z,96999.70
2019-01-14T13:41:22.230Z,97017.97
2019-01-14T13:43:51.058Z,97006.11
2019-01-14T13:46:26.208Z,96997.22
2019-01-14T13:48:50.556Z,97002.00
2019-01-14T13:51:19.200Z,97001.50
2019-01-14T13:53:48.127Z,97004.86
2019-01-14T13:56:16.762Z,97010.16
2019-01-14T13:58:45.390Z,97006.16
2019-01-14T14:01:14.093Z,96998.45
2019-01-14T14:03:43.102Z,96997.95
2019-01-14T14:06:11.738Z,96994.95
2019-01-14T14:08:40.375Z,96998.47
2019-01-14T14:11:09.036Z,96996.98
2019-01-14T14:13:37.690Z,97005.44
2019-01-14T14:16:06.343Z,97019.02
2019-01-14T14:18:35.003Z,97017.09
2019-01-14T14:21:03.659Z,97031.53
2019-01-14T14:23:33.433Z,97032.98
2019-01-14T14:26:02.635Z,97046.71
2019-01-14T14:28:32.379Z,97078.94
2019-01-14T14:31:01.012Z,97104.83
2019-01-14T14:33:29.694Z,97110.22
2019-01-14T14:35:58.311Z,97108.05
2019-01-14T14:38:26.943Z,97124.78
2019-01-14T14:40:55.596Z,97125.27
2019-01-14T14:43:24.598Z,97116.61
2019-01-14T14:45:53.256Z,97125.50
2019-01-14T14:48:21.910Z,97130.46
2019-01-14T14:50:50.545Z,97132.11
2019-01-14T14:53:20.287Z,97140.80
2019-01-14T14:55:48.960Z,97159.09
2019-01-14T14:58:17.590Z,97147.99
2019-01-14T15:00:46.302Z,97148.68
2019-01-14T15:03:14.967Z,97147.71
2019-01-14T15:05:43.612Z,97159.31
2019-01-14T15:08:12.559Z,97166.82
2019-01-14T15:10:41.276Z,97161.31
2019-01-14T15:13:10.005Z,97165.63
2019-01-14T15:15:38.663Z,97176.31
2019-01-14T15:18:07.387Z,97176.38
2019-01-14T15:20:36.063Z,97191.59
2019-01-14T15:23:04.705Z,97188.25
2019-01-14T15:25:33.351Z,97197.53
2019-01-14T15:28:01.984Z,97207.95
2019-01-14T15:30:30.942Z,97218.08
2019-01-14T15:32:59.591Z,97216.01
2019-01-14T15:35:28.244Z,97221.86
2019-01-14T15:37:56.878Z,97233.41
2019-01-14T15:40:25.704Z,97236.33
2019-01-14T15:42:56.188Z,97239.02
2019-01-14T15:45:25.460Z,97234.38
2019-01-14T15:47:54.098Z,97243.97
2019-01-14T15:50:22.874Z,97235.61
2019-01-14T15:52:51.583Z,97253.05
2019-01-14T15:55:21.320Z,97257.80
2019-01-14T15:57:51.472Z,97267.58
2019-01-14T16:00:20.548Z,97268.37
2019-01-14T16:02:49.326Z,97270.86
2019-01-14T16:05:18.098Z,97273.30
2019-01-14T16:07:46.769Z,97274.88
2019-01-14T16:10:16.690Z,97282.88
2019-01-14T16:12:45.341Z,97290.44
2019-01-14T16:15:14.371Z,97293.92
2019-01-14T16:17:43.185Z,97309.23
2019-01-14T16:20:12.966Z,97307.83
2019-01-14T16:22:41.687Z,97310.34
2019-01-14T16:25:10.319Z,97311.63
2019-01-14T16:27:38.955Z,97323.34
2019-01-14T16:30:09.877Z,97328.00
2019-01-14T16:32:38.521Z,97332.76
2019-01-14T16:35:07.158Z,97339.41
2019-01-14T16:37:35.827Z,97362.20
2019-01-14T16:40:04.904Z,97353.71
2019-01-14T16:42:33.611Z,97368.67
2019-01-14T16:45:02.339Z,97371.83
2019-01-14T16:47:31.266Z,97369.75
2019-01-14T16:49:59.974Z,97381.02
2019-01-14T16:52:28.660Z,97380.22
2019-01-14T16:54:57.314Z,97386.75
2019-01-14T16:57:26.017Z,97405.19
2019-01-14T16:59:54.670Z,97394.63
2019-01-14T17:02:23.318Z,97402.63
2019-01-14T17:04:51.946Z,97400.19
2019-01-14T17:07:20.676Z,97405.26
2019-01-14T17:09:49.647Z,97413.31
2019-01-14T17:12:18.274Z,97415.27
2019-01-14T17:14:46.944Z,97406.52
2019-01-14T17:17:15.576Z,97417.63
2019-01-14T17:19:44.371Z,97424.41
2019-01-14T17:22:13.419Z,97422.31
2019-01-14T17:24:42.044Z,97429.80
2019-01-14T17:27:10.768Z,97437.86
2019-01-14T17:29:39.408Z,97441.36
2019-01-14T17:32:08.057Z,97452.56
2019-01-14T17:34:36.727Z,97456.14
2019-01-14T17:37:05.435Z,97467.28
2019-01-14T17:39:34.295Z,97470.63
2019-01-14T17:42:03.202Z,97474.44
2019-01-14T17:44:31.845Z,97483.09
2019-01-14T17:47:00.481Z,97481.10
2019-01-14T17:49:29.182Z,97487.62
2019-01-14T17:51:58.018Z,97487.31
2019-01-14T17:54:26.680Z,97496.86
2019-01-14T17:56:55.504Z,97502.98
2019-01-14T17:59:24.206Z,97506.86
2019-01-14T18:01:52.846Z,97510.30
2019-01-14T18:04:21.550Z,97517.91
2019-01-14T18:06:50.222Z,97519.49
2019-01-14T18:09:18.900Z,97523.02
2019-01-14T18:11:47.876Z,97532.13
2019-01-14T18:14:16.678Z,97535.41
2019-01-14T18:16:45.320Z,97548.13
2019-01-14T18:19:13.994Z,97554.67
2019-01-14T18:21:42.825Z,97562.23
2019-01-14T18:24:12.983Z,97572.02
2019-01-14T18:26:41.717Z,97572.53
2019-01-14T18:29:10.365Z,97570.02
2019-01-14T18:31:39.111Z,97580.41
2019-01-14T18:34:10.614Z,97579.47
2019-01-14T18:36:39.297Z,97576.33
2019-01-14T18:39:08.474Z,97589.34
2019-01-14T18:41:37.211Z,97596.38
2019-01-14T18:44:06.000Z,97605.47
2019-01-14T18:46:36.065Z,97600.29
2019-01-14T18:49:04.982Z,97609.38
2019-01-14T18:51:33.865Z,97618.69
2019-01-14T18:54:02.664Z,97614.13
2019-01-14T18:56:31.912Z,97620.36
2019-01-14T18:59:00.750Z,97629.46
2019-01-14T19:01:29.484Z,97633.16
2019-01-14T19:03:58.154Z,97635.37
2019-01-14T19:06:27.040Z,97652.83
2019-01-14T19:08:55.834Z,97641.59
2019-01-14T19:11:24.473Z,97654.28
2019-01-14T19:13:53.196Z,97656.13
2019-01-14T19:16:21.852Z,97652.91
2019-01-14T19:18:51.305Z,97656.70
2019-01-14T19:21:20.021Z,97663.59
2019-01-14T19:23:48.667Z,97670.13
2019-01-14T19:26:17.328Z,97677.30
2019-01-14T19:28:46.086Z,97671.14
2019-01-14T19:31:15.001Z,97688.00
2019-01-14T19:33:44.259Z,97691.66
2019-01-14T19:36:12.971Z,97695.90
2019-01-14T19:38:41.631Z,97695.64
2019-01-14T19:41:10.340Z,97710.38
2019-01-14T19:43:39.335Z,97706.56
2019-01-14T19:46:08.431Z,97710.38
2019-01-14T19:48:37.157Z,97714.32
2019-01-14T19:51:05.819Z,97715.37
2019-01-14T19:53:34.533Z,97707.28
2019-01-14T19:56:03.710Z,97731.41
2019-01-14T19:58:32.428Z,97727.88
2019-01-14T20:01:01.206Z,97727.09
2019-01-14T20:03:31.020Z,97749.07
2019-01-14T20:05:59.726Z,97741.80
2019-01-14T20:08:28.662Z,97749.86
2019-01-14T20:10:57.414Z,97755.38
2019-01-14T20:13:26.434Z,97760.45
2019-01-14T20:15:55.066Z,97763.14
2019-01-14T20:18:23.989Z,97772.02
2019-01-14T20:20:52.626Z,97774.31
2019-01-14T20:23:21.643Z,97782.08
2019-01-14T20:25:50.290Z,97774.53
2019-01-14T20:28:19.015Z,97773.52
2019-01-14T20:30:47.704Z,97781.86
2019-01-14T20:33:19.535Z,97780.12
2019-01-14T20:35:46.868Z,97780.41
2019-01-14T20:38:15.515Z,97791.24
2019-01-14T20:40:44.289Z,97782.58
2019-01-14T20:43:13.223Z,97786.03
2019-01-14T20:45:42.315Z,97789.48
2019-01-14T20:48:11.218Z,97796.16
2019-01-14T20:50:40.830Z,97794.52
2019-01-14T20:53:13.663Z,97800.73
2019-01-14T20:55:40.048Z,97800.41
2019-01-14T20:58:08.797Z,97811.11
2019-01-14T21:00:38.814Z,97806.28
2019-01-14T21:03:07.483Z,97808.42
2019-01-14T21:05:36.155Z,97812.70
2019-01-14T21:08:04.959Z,97812.12
2019-01-14T21:10:33.609Z,97804.65
2019-01-14T21:13:02.340Z,97810.20
2019-01-14T21:15:30.984Z,97807.77
2019-01-14T21:17:59.848Z,97810.70
2019-01-14T21:20:28.781Z,97811.25
2019-01-14T21:22:57.696Z,97815.24
2019-01-14T21:25:26.460Z,97817.53
2019-01-14T21:27:55.250Z,97820.82
2019-01-14T21:30:25.188Z,97820.63
2019-01-14T21:32:54.929Z,97827.19
2019-01-14T21:35:23.592Z,97830.63
2019-01-14T21:37:53.552Z,97832.91
2019-01-14T21:40:22.461Z,97829.28
2019-01-14T21:42:51.601Z,97848.08
2019-01-14T21:45:21.832Z,97846.73
2019-01-14T21:47:50.604Z,97846.84
2019-01-14T21:50:19.520Z,97857.30
2019-01-14T21:52:48.672Z,97855.00
2019-01-14T21:55:18.442Z,97859.34
2019-01-14T21:57:47.159Z,97865.50
2019-01-14T22:00:17.127Z,97863.12
2019-01-14T22:02:46.007Z,97880.55
2019-01-14T22:05:14.733Z,97889.37
2019-01-14T22:07:43.405Z,97885.91
2019-01-14T22:10:13.565Z,97895.33
2019-01-14T22:12:42.297Z,97887.06
2019-01-14T22:15:11.083Z,97888.73
2019-01-14T22:17:39.940Z,97901.08
2019-01-14T22:20:10.680Z,97901.91
2019-01-14T22:22:40.635Z,97896.30
2019-01-14T22:25:09.403Z,97894.72
2019-01-14T22:27:38.094Z,97896.07
2019-01-14T22:30:08.034Z,97901.69
2019-01-14T22:32:36.900Z,97902.45
2019-01-14T22:35:05.926Z,97898.96
2019-01-14T22:37:35.128Z,97900.80
2019-01-14T22:40:04.744Z,97902.91
2019-01-14T22:42:33.380Z,97910.36
2019-01-14T22:45:03.271Z,97899.61
2019-01-14T22:47:32.063Z,97901.14
2019-01-14T22:50:00.692Z,97913.44
2019-01-14T22:52:29.427Z,97912.09
2019-01-14T22:54:58.389Z,97916.38
2019-01-14T22:57:27.015Z,97918.81
2019-01-14T22:59:56.736Z,97923.06
2019-01-14T23:02:25.775Z,97922.50
2019-01-14T23:04:54.607Z,97915.77
2019-01-14T23:07:23.268Z,97924.38
2019-01-14T23:09:51.946Z,97926.78
2019-01-14T23:12:20.663Z,97928.68
2019-01-14T23:14:49.445Z,97932.75
2019-01-14T23:17:18.075Z,97930.86
2019-01-14T23:19:46.739Z,97929.23
2019-01-14T23:22:15.393Z,97937.05
2019-01-14T23:24:44.038Z,97936.24
2019-01-14T23:27:12.685Z,97941.09
2019-01-14T23:29:41.340Z,97944.57
2019-01-14T23:32:10.045Z,97950.73
2019-01-14T23:34:38.834Z,97958.80
2019-01-14T23:37:07.530Z,97953.73
2019-01-14T23:39:36.172Z,97957.20
2019-01-14T23:42:04.986Z,97957.99
2019-01-14T23:44:34.814Z,97955.31
2019-01-14T23:47:03.524Z,97959.31
2019-01-14T23:49:32.336Z,97962.29
2019-01-14T23:52:00.979Z,97966.28
2019-01-14T23:54:36.743Z,97969.75
2019-01-14T23:56:59.948Z,97965.77
2019-01-14T23:59:28.596Z,97972.98
